Time;durP1;ratioP1;P1;durP2;ratioP2;P2;SDS_P1;SDS_P2;PMS_P1;PMS_P2;Temp;Humidity;BMP_temperature;BMP_pressure;BME280_temperature;BME280_humidity;BME280_pressure;Samples;Min_cycle;Max_cycle;Signal;HPM_P1;HPM_P2
2022/04/27 06:00:17;;;;;;;22.50;14.45;;;;;;;;;;6013376;23;20933;-80
2022/04/27 06:02:44;;;;;;;21.25;14.43;;;;;;;;;;4914488;29;20047;-89
2022/04/27 06:05:12;;;;;;;28.58;14.25;;;;;;;;;;4915422;29;20107;-87
2022/04/27 06:07:39;;;;;;;28.48;14.27;;;;;;;;;;4915508;29;20115;-87
2022/04/27 06:10:07;;;;;;;21.95;13.40;;;;;;;;;;4918473;28;20449;-87
2022/04/27 06:12:39;;;;;;;22.73;14.27;;;;;;;;;;4919851;29;20056;-87
2022/04/27 06:15:11;;;;;;;19.20;13.65;;;;;;;;;;4912077;29;20087;-87
2022/04/27 06:17:38;;;;;;;19.30;14.02;;;;;;;;;;4918450;29;20505;-88
2022/04/27 06:20:05;;;;;;;19.08;14.98;;;;;;;;;;4916994;28;20108;-87
2022/04/27 06:22:32;;;;;;;22.73;14.50;;;;;;;;;;4928214;29;20052;-88
2022/04/27 06:24:59;;;;;;;21.48;14.23;;;;;;;;;;4919893;29;20056;-86
2022/04/27 06:27:26;;;;;;;18.75;13.45;;;;;;;;;;4896410;29;20171;-86
2022/04/27 06:29:52;;;;;;;18.20;13.43;;;;;;;;;;4912359;29;20064;-86
2022/04/27 06:32:19;;;;;;;19.00;14.23;;;;;;;;;;4894753;29;20052;-86
2022/04/27 06:34:45;;;;;;;20.42;13.25;;;;;;;;;;4913567;29;20083;-83
2022/04/27 06:37:12;;;;;;;20.52;14.10;;;;;;;;;;4912272;29;20072;-86
2022/04/27 06:39:40;;;;;;;24.65;14.70;;;;;;;;;;4911297;29;20059;-86
2022/04/27 06:42:07;;;;;;;19.10;13.65;;;;;;;;;;4910748;29;20084;-87
2022/04/27 06:44:34;;;;;;;21.33;14.63;;;;;;;;;;4912211;29;20554;-85
2022/04/27 06:47:03;;;;;;;20.13;14.20;;;;;;;;;;4908874;29;20404;-86
2022/04/27 06:49:30;;;;;;;19.35;15.38;;;;;;;;;;4905566;29;20071;-86
2022/04/27 06:51:57;;;;;;;21.63;14.63;;;;;;;;;;4909344;29;20087;-86
2022/04/27 06:54:24;;;;;;;19.25;14.10;;;;;;;;;;4909399;29;20458;-86
2022/04/27 06:56:50;;;;;;;16.75;13.38;;;;;;;;;;4911065;29;20059;-86
2022/04/27 06:59:17;;;;;;;24.73;14.60;;;;;;;;;;4908297;29;20111;-86
2022/04/27 07:01:44;;;;;;;22.95;14.38;;;;;;;;;;4912348;28;20134;-86
2022/04/27 07:04:11;;;;;;;26.02;13.93;;;;;;;;;;4929600;28;20495;-86
2022/04/27 07:06:39;;;;;;;18.25;13.95;;;;;;;;;;4962658;28;20051;-87
2022/04/27 07:09:11;;;;;;;20.63;14.20;;;;;;;;;;4931248;28;20052;-85
2022/04/27 07:11:42;;;;;;;19.75;14.85;;;;;;;;;;4930181;28;20063;-85
2022/04/27 07:14:15;;;;;;;15.98;12.93;;;;;;;;;;4933308;28;20103;-87
2022/04/27 07:16:43;;;;;;;18.83;13.60;;;;;;;;;;4932008;28;20052;-89
2022/04/27 07:19:10;;;;;;;19.17;13.10;;;;;;;;;;4933165;28;20074;-90
2022/04/27 07:21:36;;;;;;;18.70;12.95;;;;;;;;;;4932236;28;20126;-90
2022/04/27 07:24:04;;;;;;;31.58;14.25;;;;;;;;;;4932728;28;20056;-85
2022/04/27 07:26:31;;;;;;;31.45;14.70;;;;;;;;;;4932627;28;20126;-85
2022/04/27 07:28:58;;;;;;;19.88;13.50;;;;;;;;;;4929503;29;20568;-84
2022/04/27 07:31:26;;;;;;;19.30;13.98;;;;;;;;;;4931199;28;20052;-86
2022/04/27 07:33:52;;;;;;;20.40;14.63;;;;;;;;;;4932430;28;20424;-85
2022/04/27 07:36:19;;;;;;;16.75;13.57;;;;;;;;;;4931617;28;20130;-85
2022/04/27 07:38:46;;;;;;;18.38;14.27;;;;;;;;;;4932578;28;20071;-84
2022/04/27 07:41:12;;;;;;;17.42;13.52;;;;;;;;;;4927512;28;20131;-85
2022/04/27 07:43:39;;;;;;;16.02;13.35;;;;;;;;;;4928129;28;20051;-85
2022/04/27 07:46:07;;;;;;;17.15;13.65;;;;;;;;;;4930421;28;20059;-84
2022/04/27 07:48:35;;;;;;;18.40;13.60;;;;;;;;;;4926256;28;20504;-85
2022/04/27 07:51:03;;;;;;;22.02;13.98;;;;;;;;;;4931155;28;20082;-85
2022/04/27 07:53:30;;;;;;;21.67;13.10;;;;;;;;;;4929476;28;20036;-85
2022/04/27 07:55:57;;;;;;;20.85;14.70;;;;;;;;;;4932057;28;20051;-85
2022/04/27 07:58:23;;;;;;;20.50;13.00;;;;;;;;;;4916730;28;20556;-84
2022/04/27 08:00:50;;;;;;;21.73;13.57;;;;;;;;;;4928180;28;20553;-85
2022/04/27 08:03:17;;;;;;;22.08;14.05;;;;;;;;;;4927926;28;20488;-85
2022/04/27 08:05:44;;;;;;;30.25;13.93;;;;;;;;;;4927949;28;20056;-85
2022/04/27 08:08:10;;;;;;;24.80;12.80;;;;;;;;;;4928502;28;20130;-84
2022/04/27 08:10:42;;;;;;;15.43;12.63;;;;;;;;;;4926514;29;20535;-85
2022/04/27 08:13:09;;;;;;;17.17;13.15;;;;;;;;;;4924432;28;20566;-87
2022/04/27 08:15:35;;;;;;;15.35;12.60;;;;;;;;;;4927722;29;20175;-87
2022/04/27 08:18:06;;;;;;;17.33;12.05;;;;;;;;;;4961711;28;20057;-85
2022/04/27 08:23:32;;;;;;;13.82;11.75;;;;;;;;;;4929549;28;20172;-86
2022/04/27 08:26:05;;;;;;;15.73;11.45;;;;;;;;;;4930484;28;20472;-85
2022/04/27 08:28:33;;;;;;;22.00;12.80;;;;;;;;;;4926642;28;20107;-87
2022/04/27 08:31:00;;;;;;;15.75;12.38;;;;;;;;;;4925746;28;20566;-85
2022/04/27 08:33:27;;;;;;;16.63;11.77;;;;;;;;;;4927046;28;20060;-86
2022/04/27 08:35:55;;;;;;;14.38;11.00;;;;;;;;;;4928816;28;20083;-86
2022/04/27 08:38:41;;;;;;;22.08;11.27;;;;;;;;;;4930079;28;20048;-86
2022/04/27 08:41:08;;;;;;;14.85;11.23;;;;;;;;;;4928818;28;20052;-86
2022/04/27 08:43:36;;;;;;;15.35;11.30;;;;;;;;;;4926545;29;20122;-86
2022/04/27 08:46:03;;;;;;;25.83;11.13;;;;;;;;;;4941351;28;20489;-85
2022/04/27 08:48:31;;;;;;;13.65;10.70;;;;;;;;;;4925224;28;20083;-86
2022/04/27 08:51:00;;;;;;;13.88;11.32;;;;;;;;;;4928341;29;20047;-88
2022/04/27 08:53:27;;;;;;;12.52;10.23;;;;;;;;;;4929265;28;20063;-87
2022/04/27 08:55:55;;;;;;;13.38;10.25;;;;;;;;;;4927669;28;20059;-86
2022/04/27 08:58:23;;;;;;;10.32;9.23;;;;;;;;;;4928865;28;20094;-87
2022/04/27 09:01:06;;;;;;;17.73;10.77;;;;;;;;;;4924058;28;20115;-85
2022/04/27 09:03:34;;;;;;;12.45;10.52;;;;;;;;;;4934170;28;20047;-87
2022/04/27 09:06:03;;;;;;;13.03;9.93;;;;;;;;;;4936446;28;20134;-86
2022/04/27 09:08:40;;;;;;;45.00;11.10;;;;;;;;;;4934546;28;20047;-86
2022/04/27 09:11:20;;;;;;;19.27;12.38;;;;;;;;;;4931407;28;20047;-86
2022/04/27 09:13:48;;;;;;;23.05;10.10;;;;;;;;;;4928588;29;20059;-87
2022/04/27 09:16:18;;;;;;;24.92;11.07;;;;;;;;;;4931571;28;20039;-86
2022/04/27 09:22:02;;;;;;;13.32;9.80;;;;;;;;;;4930558;28;20126;-88
2022/04/27 09:24:45;;;;;;;13.30;10.10;;;;;;;;;;4930474;28;20158;-86
2022/04/27 09:27:12;;;;;;;13.93;9.88;;;;;;;;;;4931609;28;20135;-85
2022/04/27 09:29:38;;;;;;;14.65;9.63;;;;;;;;;;4933145;28;20082;-85
2022/04/27 09:32:06;;;;;;;15.18;10.95;;;;;;;;;;4929701;28;20052;-84
2022/04/27 09:34:47;;;;;;;12.27;9.90;;;;;;;;;;4933976;28;20048;-86
2022/04/27 09:37:22;;;;;;;12.40;9.88;;;;;;;;;;4927910;28;20047;-85
2022/04/27 09:40:11;;;;;;;14.95;9.82;;;;;;;;;;4933508;28;20055;-86
2022/04/27 09:42:45;;;;;;;16.77;10.50;;;;;;;;;;4932711;28;20049;-84
2022/04/27 09:45:23;;;;;;;15.50;10.10;;;;;;;;;;4915832;28;20137;-84
2022/04/27 09:47:50;;;;;;;14.65;9.57;;;;;;;;;;4931943;28;20082;-84
2022/04/27 09:50:17;;;;;;;14.35;9.98;;;;;;;;;;4933817;28;20079;-86
2022/04/27 09:52:44;;;;;;;18.65;10.93;;;;;;;;;;4933077;28;20056;-84
2022/04/27 09:55:11;;;;;;;12.02;10.27;;;;;;;;;;4928797;28;20043;-82
2022/04/27 09:57:41;;;;;;;14.30;10.18;;;;;;;;;;4930346;28;20134;-85
2022/04/27 10:00:12;;;;;;;15.30;10.60;;;;;;;;;;4930798;28;20119;-84
2022/04/27 10:02:43;;;;;;;12.32;9.98;;;;;;;;;;4931627;28;20051;-86
2022/04/27 10:05:10;;;;;;;13.35;10.27;;;;;;;;;;4959936;28;20039;-85
2022/04/27 10:07:37;;;;;;;15.98;10.63;;;;;;;;;;4928935;28;20052;-84
2022/04/27 10:10:04;;;;;;;13.90;9.93;;;;;;;;;;4925701;28;20068;-86
2022/04/27 10:12:39;;;;;;;11.32;9.13;;;;;;;;;;4930119;28;20087;-85
2022/04/27 10:15:06;;;;;;;14.02;9.82;;;;;;;;;;4929192;28;20119;-84
2022/04/27 10:17:34;;;;;;;21.08;8.80;;;;;;;;;;4932082;28;20068;-84
2022/04/27 10:20:01;;;;;;;13.85;8.88;;;;;;;;;;4930591;28;20062;-86
2022/04/27 10:22:32;;;;;;;13.75;8.05;;;;;;;;;;4961181;28;20107;-83
2022/04/27 10:25:09;;;;;;;10.88;8.73;;;;;;;;;;4961276;28;20135;-84
2022/04/27 10:27:40;;;;;;;16.65;8.85;;;;;;;;;;4927972;28;20133;-84
2022/04/27 10:30:09;;;;;;;10.63;7.60;;;;;;;;;;4930718;28;20513;-84
2022/04/27 10:32:45;;;;;;;;;;;;;;;;;;4933766;28;20496;-83
2022/04/27 10:35:12;;;;;;;16.83;8.63;;;;;;;;;;4930323;28;19974;-84
2022/04/27 10:37:52;;;;;;;15.40;8.20;;;;;;;;;;4928713;28;20055;-83
2022/04/27 10:40:34;;;;;;;18.77;8.30;;;;;;;;;;4929946;28;20200;-84
2022/04/27 10:43:07;;;;;;;11.25;8.65;;;;;;;;;;4931442;28;20126;-84
2022/04/27 10:45:39;;;;;;;12.65;9.15;;;;;;;;;;4931777;28;20051;-84
2022/04/27 10:48:07;;;;;;;10.55;8.40;;;;;;;;;;4930121;28;20063;-84
2022/04/27 10:50:35;;;;;;;11.20;8.07;;;;;;;;;;4933686;28;20059;-83
2022/04/27 10:53:17;;;;;;;18.85;11.43;;;;;;;;;;4932326;28;20048;-83
2022/04/27 10:55:58;;;;;;;13.05;9.10;;;;;;;;;;4929608;28;20052;-83
2022/04/27 10:58:50;;;;;;;13.02;9.15;;;;;;;;;;4932540;28;20050;-84
2022/04/27 11:01:19;;;;;;;11.57;8.73;;;;;;;;;;4935241;28;20058;-84
2022/04/27 11:04:01;;;;;;;13.38;8.90;;;;;;;;;;4934233;28;20051;-83
2022/04/27 11:07:22;;;;;;;9.45;8.32;;;;;;;;;;4930230;28;20046;-83
2022/04/27 11:10:17;;;;;;;12.00;9.15;;;;;;;;;;4861259;29;20493;-83
2022/04/27 11:12:46;;;;;;;11.07;8.63;;;;;;;;;;4878028;29;20088;-83
2022/04/27 11:15:24;;;;;;;15.38;8.93;;;;;;;;;;4858059;29;20079;-83
2022/04/27 11:18:01;;;;;;;10.98;8.90;;;;;;;;;;4887550;29;20113;-83
2022/04/27 11:20:37;;;;;;;11.37;8.40;;;;;;;;;;4871679;29;20049;-84
2022/04/27 11:23:09;;;;;;;10.27;7.97;;;;;;;;;;4873431;29;20112;-82
2022/04/27 11:25:42;;;;;;;10.75;8.18;;;;;;;;;;4888135;29;20089;-83
2022/04/27 11:28:11;;;;;;;10.38;8.18;;;;;;;;;;4873636;29;20073;-84
2022/04/27 11:30:39;;;;;;;11.05;7.32;;;;;;;;;;4880288;29;20063;-82
2022/04/27 11:33:05;;;;;;;12.98;7.47;;;;;;;;;;4868404;29;20109;-82
2022/04/27 11:35:45;;;;;;;8.50;7.25;;;;;;;;;;4870615;29;20129;-83
2022/04/27 11:38:19;;;;;;;11.85;7.65;;;;;;;;;;4871772;29;20101;-83
2022/04/27 11:40:48;;;;;;;10.02;7.75;;;;;;;;;;4871051;29;20095;-83
2022/04/27 11:43:25;;;;;;;12.68;7.35;;;;;;;;;;4873506;29;20540;-82
2022/04/27 11:45:52;;;;;;;10.45;8.20;;;;;;;;;;4878756;29;20049;-83
2022/04/27 11:48:21;;;;;;;12.43;7.72;;;;;;;;;;4943087;28;20500;-83
2022/04/27 11:50:50;;;;;;;12.60;8.15;;;;;;;;;;4935959;28;20075;-83
2022/04/27 11:53:17;;;;;;;13.40;9.10;;;;;;;;;;4945208;28;20427;-82
2022/04/27 11:55:49;;;;;;;9.38;7.95;;;;;;;;;;4954799;28;20080;-84
2022/04/27 11:58:23;;;;;;;11.02;7.70;;;;;;;;;;4925283;28;20099;-82
2022/04/27 12:01:00;;;;;;;13.43;8.15;;;;;;;;;;4935167;28;20468;-83
2022/04/27 12:03:29;;;;;;;10.32;7.18;;;;;;;;;;4938784;28;20083;-82
2022/04/27 12:05:56;;;;;;;12.43;8.43;;;;;;;;;;4932664;28;20138;-83
2022/04/27 12:08:25;;;;;;;11.10;7.90;;;;;;;;;;4938863;28;20043;-82
2022/04/27 12:10:53;;;;;;;8.32;7.53;;;;;;;;;;4934343;28;20594;-83
2022/04/27 12:13:21;;;;;;;11.10;7.15;;;;;;;;;;4931251;28;20501;-81
2022/04/27 12:15:50;;;;;;;8.93;7.03;;;;;;;;;;4929964;28;20110;-82
2022/04/27 12:18:19;;;;;;;9.90;6.35;;;;;;;;;;4935080;28;20295;-82
2022/04/27 12:20:48;;;;;;;9.20;6.05;;;;;;;;;;4934696;28;20155;-82
2022/04/27 12:23:24;;;;;;;11.38;6.93;;;;;;;;;;4930625;28;20075;-82
2022/04/27 12:25:57;;;;;;;11.30;7.35;;;;;;;;;;4932263;28;20048;-82
2022/04/27 12:28:24;;;;;;;15.95;7.22;;;;;;;;;;4930273;28;20051;-82
2022/04/27 12:30:56;;;;;;;15.98;7.32;;;;;;;;;;4930432;28;20067;-83
2022/04/27 12:33:28;;;;;;;10.43;6.88;;;;;;;;;;4930579;28;20047;-81
2022/04/27 12:39:11;;;;;;;16.58;6.72;;;;;;;;;;4934422;28;20047;-83
2022/04/27 12:41:46;;;;;;;10.38;6.43;;;;;;;;;;4936111;28;20048;-82
2022/04/27 12:44:24;;;;;;;14.60;7.38;;;;;;;;;;4936698;28;20070;-83
2022/04/27 12:47:00;;;;;;;9.55;6.90;;;;;;;;;;4935431;28;20135;-83
2022/04/27 12:49:29;;;;;;;12.95;7.60;;;;;;;;;;4935394;28;20648;-81
2022/04/27 12:52:13;;;;;;;17.80;13.60;;;;;;;;;;4942961;28;20422;-82
2022/04/27 12:54:40;;;;;;;21.10;9.63;;;;;;;;;;4936080;28;20063;-83
2022/04/27 12:57:06;;;;;;;11.30;7.03;;;;;;;;;;4944073;28;20845;-83
2022/04/27 12:59:52;;;;;;;24.38;8.00;;;;;;;;;;4934585;28;20103;-83
2022/04/27 13:02:19;;;;;;;10.23;7.00;;;;;;;;;;4942102;28;20126;-84
2022/04/27 13:04:47;;;;;;;18.70;8.32;;;;;;;;;;4934574;28;20044;-84
2022/04/27 13:07:13;;;;;;;12.10;7.55;;;;;;;;;;4934777;28;20047;-84
2022/04/27 13:12:33;;;;;;;12.20;7.43;;;;;;;;;;4937169;28;20067;-85
2022/04/27 13:15:01;;;;;;;10.57;7.20;;;;;;;;;;4935624;28;20083;-89
2022/04/27 13:17:30;;;;;;;12.15;7.97;;;;;;;;;;4937892;28;20051;-84
2022/04/27 13:19:57;;;;;;;10.63;7.07;;;;;;;;;;4965475;28;20051;-83
2022/04/27 13:22:25;;;;;;;11.43;6.90;;;;;;;;;;4934197;28;20234;-85
2022/04/27 13:24:59;;;;;;;12.02;7.38;;;;;;;;;;4941746;28;20516;-84
2022/04/27 13:27:26;;;;;;;10.98;7.00;;;;;;;;;;4932919;28;20103;-84
2022/04/27 13:29:54;;;;;;;15.93;7.03;;;;;;;;;;4934095;28;20044;-85
2022/04/27 13:32:23;;;;;;;12.77;6.65;;;;;;;;;;4926783;28;20044;-84
2022/04/27 13:34:50;;;;;;;;;;;;;;;;;;4936570;28;20047;-85
2022/04/27 13:37:22;;;;;;;11.88;5.90;;;;;;;;;;4930961;28;19927;-84
2022/04/27 13:39:49;;;;;;;11.75;5.72;;;;;;;;;;4944388;28;20047;-83
2022/04/27 13:42:16;;;;;;;12.50;5.95;;;;;;;;;;4933673;28;20047;-85
2022/04/27 13:44:42;;;;;;;9.43;6.43;;;;;;;;;;4927798;28;20062;-83
2022/04/27 13:47:09;;;;;;;8.80;6.40;;;;;;;;;;4942193;28;20047;-83
2022/04/27 13:49:36;;;;;;;8.98;6.68;;;;;;;;;;4972585;28;20047;-85
2022/04/27 13:52:04;;;;;;;10.13;6.50;;;;;;;;;;4937227;28;20080;-82
2022/04/27 13:54:36;;;;;;;9.82;5.97;;;;;;;;;;4933495;28;20043;-84
2022/04/27 13:57:03;;;;;;;10.93;7.05;;;;;;;;;;4942138;28;20102;-84
2022/04/27 13:59:30;;;;;;;13.50;6.68;;;;;;;;;;4933594;28;20040;-84
2022/04/27 14:02:00;;;;;;;11.25;6.57;;;;;;;;;;4943290;28;20059;-83
2022/04/27 14:04:27;;;;;;;12.27;7.15;;;;;;;;;;4938350;28;20552;-84
2022/04/27 14:06:53;;;;;;;14.60;7.00;;;;;;;;;;4937865;28;20809;-84
2022/04/27 14:09:20;;;;;;;7.75;6.80;;;;;;;;;;4932897;28;20102;-85
2022/04/27 14:14:33;;;;;;;12.75;7.32;;;;;;;;;;4933605;28;20043;-84
2022/04/27 14:19:45;;;;;;;15.52;8.25;;;;;;;;;;4932508;28;20584;-84
2022/04/27 14:22:12;;;;;;;10.18;8.57;;;;;;;;;;4933695;28;20127;-85
2022/04/27 14:24:38;;;;;;;9.88;8.00;;;;;;;;;;4933467;28;20059;-87
2022/04/27 14:27:06;;;;;;;19.42;8.70;;;;;;;;;;4932522;28;20062;-84
2022/04/27 14:29:33;;;;;;;12.50;8.30;;;;;;;;;;4928259;29;20063;-83
2022/04/27 14:32:02;;;;;;;13.88;8.55;;;;;;;;;;4932274;28;20404;-85
2022/04/27 14:34:31;;;;;;;11.27;8.35;;;;;;;;;;4934049;28;20133;-83
2022/04/27 14:36:58;;;;;;;16.42;8.40;;;;;;;;;;4932551;28;20048;-84
2022/04/27 14:39:26;;;;;;;14.20;9.15;;;;;;;;;;4933058;28;20067;-85
2022/04/27 14:41:53;;;;;;;16.60;9.20;;;;;;;;;;4933155;28;20047;-83
2022/04/27 14:44:20;;;;;;;13.88;9.43;;;;;;;;;;4929119;28;20058;-82
2022/04/27 14:46:50;;;;;;;22.15;9.32;;;;;;;;;;4930502;28;20110;-85
2022/04/27 14:49:21;;;;;;;15.43;9.40;;;;;;;;;;4932942;28;20095;-83
2022/04/27 14:51:47;;;;;;;35.25;10.98;;;;;;;;;;4931550;28;20103;-82
2022/04/27 14:54:14;;;;;;;17.70;9.38;;;;;;;;;;4933645;28;20477;-85
2022/04/27 14:56:41;;;;;;;31.13;9.88;;;;;;;;;;4930228;28;20070;-85
2022/04/27 14:59:08;;;;;;;49.70;10.98;;;;;;;;;;4933657;28;20047;-82
2022/04/27 15:01:36;;;;;;;50.85;12.68;;;;;;;;;;4933872;28;20051;-83
2022/04/27 15:04:04;;;;;;;17.05;10.70;;;;;;;;;;4932181;28;20106;-82
2022/04/27 15:06:31;;;;;;;12.10;9.02;;;;;;;;;;4934147;28;20058;-85
2022/04/27 15:08:58;;;;;;;15.55;9.80;;;;;;;;;;4931902;28;20052;-80
2022/04/27 15:11:28;;;;;;;14.75;9.68;;;;;;;;;;4933480;28;20055;-83
2022/04/27 15:13:55;;;;;;;13.98;10.02;;;;;;;;;;4930384;28;20051;-84
2022/04/27 15:16:21;;;;;;;11.77;10.40;;;;;;;;;;4927164;28;20074;-83
2022/04/27 15:18:48;;;;;;;12.77;10.20;;;;;;;;;;4929807;28;20099;-86
2022/04/27 15:24:00;;;;;;;21.75;13.75;;;;;;;;;;4931510;28;20196;-82
2022/04/27 15:29:12;;;;;;;14.68;11.95;;;;;;;;;;4930526;28;20169;-82
2022/04/27 15:31:39;;;;;;;14.93;10.52;;;;;;;;;;4929537;28;20784;-82
2022/04/27 15:34:06;;;;;;;17.55;11.25;;;;;;;;;;4928822;28;20126;-86
2022/04/27 15:36:33;;;;;;;16.65;12.20;;;;;;;;;;4929893;28;20066;-85
2022/04/27 15:39:00;;;;;;;14.83;12.57;;;;;;;;;;4921125;28;20059;-85
2022/04/27 15:41:27;;;;;;;14.23;12.02;;;;;;;;;;4922663;28;20875;-85
2022/04/27 15:43:53;;;;;;;19.10;11.43;;;;;;;;;;4925912;28;20043;-85
2022/04/27 15:46:20;;;;;;;14.60;12.63;;;;;;;;;;4924991;28;20047;-84
2022/04/27 15:48:47;;;;;;;16.73;11.80;;;;;;;;;;4929490;28;20551;-82
2022/04/27 15:51:14;;;;;;;16.15;12.05;;;;;;;;;;4918456;28;20059;-83
2022/04/27 15:53:42;;;;;;;18.30;11.57;;;;;;;;;;4927779;28;20111;-83
2022/04/27 15:56:09;;;;;;;19.33;12.63;;;;;;;;;;4929205;28;20527;-82
2022/04/27 15:58:36;;;;;;;15.77;11.68;;;;;;;;;;4923790;28;20110;-84
2022/04/27 16:01:03;;;;;;;14.38;10.90;;;;;;;;;;4922356;28;20086;-82
2022/04/27 16:03:30;;;;;;;18.25;11.23;;;;;;;;;;4921955;28;20048;-83
2022/04/27 16:05:57;;;;;;;18.63;12.13;;;;;;;;;;4921461;28;20050;-82
2022/04/27 16:08:26;;;;;;;13.10;11.27;;;;;;;;;;4926356;28;20043;-83
2022/04/27 16:10:53;;;;;;;25.90;17.90;;;;;;;;;;4919237;28;20051;-83
2022/04/27 16:13:20;;;;;;;24.00;14.63;;;;;;;;;;4926119;28;20055;-84
2022/04/27 16:15:48;;;;;;;20.05;14.02;;;;;;;;;;4923443;28;20405;-83
2022/04/27 16:18:15;;;;;;;17.77;11.98;;;;;;;;;;4917987;28;20051;-82
2022/04/27 16:23:07;;;;;;;16.33;12.48;;;;;;;;;;4920102;28;20056;-83
2022/04/27 16:23:29;;;;;;;18.70;11.95;;;;;;;;;;4913836;28;20507;-82
2022/04/27 16:25:55;;;;;;;20.40;12.48;;;;;;;;;;4917442;28;20055;-82
2022/04/27 16:28:26;;;;;;;20.92;12.15;;;;;;;;;;4942984;28;20056;-83
2022/04/27 16:30:53;;;;;;;21.38;12.80;;;;;;;;;;4918487;28;20496;-82
2022/04/27 16:33:20;;;;;;;14.20;11.20;;;;;;;;;;4915090;28;20051;-81
2022/04/27 16:35:47;;;;;;;19.73;12.05;;;;;;;;;;4921473;28;20060;-84
2022/04/27 16:38:14;;;;;;;15.68;11.35;;;;;;;;;;4927442;28;20063;-83
2022/04/27 16:40:41;;;;;;;17.25;11.80;;;;;;;;;;4918075;28;20410;-82
2022/04/27 16:43:13;;;;;;;14.38;12.00;;;;;;;;;;4913810;28;20051;-83
2022/04/27 16:45:41;;;;;;;16.83;11.48;;;;;;;;;;4918480;28;20055;-82
2022/04/27 16:48:08;;;;;;;21.35;12.30;;;;;;;;;;4917215;28;20044;-82
2022/04/27 16:50:35;;;;;;;14.68;11.25;;;;;;;;;;4918074;28;20113;-82
2022/04/27 16:53:02;;;;;;;17.88;12.52;;;;;;;;;;4918332;28;20052;-82
2022/04/27 16:55:29;;;;;;;18.45;12.18;;;;;;;;;;4949346;28;20139;-81
2022/04/27 16:57:56;;;;;;;18.90;10.98;;;;;;;;;;4923133;28;20106;-82
2022/04/27 17:03:08;;;;;;;16.83;11.05;;;;;;;;;;4915407;28;20082;-82
2022/04/27 17:05:34;;;;;;;14.75;11.35;;;;;;;;;;4913623;28;20193;-81
2022/04/27 17:08:01;;;;;;;15.68;11.20;;;;;;;;;;4917476;28;20841;-82
2022/04/27 17:10:29;;;;;;;15.05;11.50;;;;;;;;;;4946577;28;20063;-81
2022/04/27 17:12:55;;;;;;;24.52;11.75;;;;;;;;;;4915812;28;20112;-82
2022/04/27 17:15:22;;;;;;;15.43;11.55;;;;;;;;;;4929060;28;20139;-82
2022/04/27 17:17:48;;;;;;;17.50;12.30;;;;;;;;;;4916110;29;20139;-82
2022/04/27 17:20:15;;;;;;;23.55;11.38;;;;;;;;;;4925910;28;20094;-81
2022/04/27 17:22:42;;;;;;;19.27;11.60;;;;;;;;;;4920845;28;20047;-82
2022/04/27 17:25:09;;;;;;;18.23;12.05;;;;;;;;;;4922957;28;20887;-85
2022/04/27 17:27:41;;;;;;;22.65;12.00;;;;;;;;;;4919971;28;20052;-82
2022/04/27 17:30:09;;;;;;;17.00;11.68;;;;;;;;;;4913483;28;20048;-82
2022/04/27 17:32:36;;;;;;;15.02;11.73;;;;;;;;;;4917039;28;20055;-82
2022/04/27 17:35:03;;;;;;;18.67;11.60;;;;;;;;;;4936193;28;20054;-82
2022/04/27 17:37:30;;;;;;;15.63;11.50;;;;;;;;;;4921525;28;20500;-81
2022/04/27 17:39:57;;;;;;;19.20;10.88;;;;;;;;;;4920092;28;20048;-82
2022/04/27 17:42:35;;;;;;;15.15;10.57;;;;;;;;;;4922959;28;20048;-82
2022/04/27 17:45:05;;;;;;;15.43;10.55;;;;;;;;;;4916308;28;20055;-83
2022/04/27 17:47:33;;;;;;;14.68;10.82;;;;;;;;;;4920293;28;20072;-84
2022/04/27 17:50:00;;;;;;;15.05;10.77;;;;;;;;;;4921987;28;20059;-82
2022/04/27 17:52:26;;;;;;;16.27;10.70;;;;;;;;;;4923759;28;20059;-82
2022/04/27 17:54:54;;;;;;;16.77;10.75;;;;;;;;;;4913996;28;20072;-82
2022/04/27 17:57:21;;;;;;;14.25;10.43;;;;;;;;;;4918835;28;20058;-82
2022/04/27 17:59:48;;;;;;;15.40;11.00;;;;;;;;;;4918021;28;20048;-81
2022/04/27 18:02:16;;;;;;;20.13;10.48;;;;;;;;;;4922977;28;20549;-82
2022/04/27 18:04:43;;;;;;;18.95;9.73;;;;;;;;;;4925041;28;20048;-82
2022/04/27 18:07:11;;;;;;;15.32;9.70;;;;;;;;;;4930049;28;20052;-82
2022/04/27 18:09:37;;;;;;;16.52;9.80;;;;;;;;;;4933242;28;20079;-84
2022/04/27 18:12:05;;;;;;;18.73;9.80;;;;;;;;;;4926067;28;20130;-82
2022/04/27 18:14:32;;;;;;;15.70;9.32;;;;;;;;;;4929391;28;20457;-83
2022/04/27 18:17:01;;;;;;;13.98;9.60;;;;;;;;;;4937707;28;20051;-83
2022/04/27 18:19:32;;;;;;;15.13;9.73;;;;;;;;;;4931915;28;20047;-83
2022/04/27 18:21:59;;;;;;;16.15;10.00;;;;;;;;;;4926872;28;20055;-85
2022/04/27 18:24:26;;;;;;;16.10;9.13;;;;;;;;;;4927872;28;20119;-84
2022/04/27 18:26:53;;;;;;;17.85;9.63;;;;;;;;;;4932470;28;20055;-83
2022/04/27 18:29:20;;;;;;;17.00;9.25;;;;;;;;;;4943904;28;20047;-83
2022/04/27 18:31:47;;;;;;;12.45;8.50;;;;;;;;;;4930897;28;20059;-83
2022/04/27 18:34:14;;;;;;;14.52;8.95;;;;;;;;;;4927950;28;20048;-83
2022/04/27 18:36:41;;;;;;;15.20;9.27;;;;;;;;;;4927156;28;20162;-83
2022/04/27 18:39:08;;;;;;;19.65;8.60;;;;;;;;;;4930207;28;20138;-84
2022/04/27 18:41:36;;;;;;;12.27;8.93;;;;;;;;;;4929814;28;20500;-85
2022/04/27 18:52:26;;;;;;;15.30;8.90;;;;;;;;;;4929854;28;20848;-83
2022/04/27 18:54:54;;;;;;;17.63;9.05;;;;;;;;;;4926281;28;20075;-82
2022/04/27 18:57:22;;;;;;;16.25;9.13;;;;;;;;;;4930557;28;20113;-83
2022/04/27 18:59:49;;;;;;;13.55;8.45;;;;;;;;;;4927957;28;20059;-82
2022/04/27 19:02:18;;;;;;;15.93;8.68;;;;;;;;;;4928294;28;20462;-82
2022/04/27 19:04:45;;;;;;;15.15;9.48;;;;;;;;;;4914941;28;20146;-82
2022/04/27 19:07:12;;;;;;;13.45;9.00;;;;;;;;;;4929240;28;20134;-83
2022/04/27 19:09:38;;;;;;;15.27;9.43;;;;;;;;;;4913258;28;20052;-82
2022/04/27 19:12:06;;;;;;;16.17;9.32;;;;;;;;;;4923613;28;20528;-83
2022/04/27 19:14:33;;;;;;;15.30;9.57;;;;;;;;;;4920862;28;20139;-81
2022/04/27 19:17:00;;;;;;;14.57;9.68;;;;;;;;;;4920477;28;20055;-85
2022/04/27 19:19:27;;;;;;;22.33;9.93;;;;;;;;;;4921471;28;20051;-83
2022/04/27 19:21:54;;;;;;;18.27;10.30;;;;;;;;;;4919478;28;20080;-83
2022/04/27 19:24:20;;;;;;;19.02;9.50;;;;;;;;;;4916622;28;20130;-84
2022/04/27 19:26:48;;;;;;;18.33;9.65;;;;;;;;;;4916497;28;20051;-83
2022/04/27 19:29:17;;;;;;;14.85;9.38;;;;;;;;;;4923194;28;20048;-82
2022/04/27 19:31:45;;;;;;;19.10;10.35;;;;;;;;;;4925583;28;20141;-82
2022/04/27 19:34:13;;;;;;;16.30;9.77;;;;;;;;;;4937340;28;20040;-81
2022/04/27 19:36:39;;;;;;;17.45;9.52;;;;;;;;;;4921788;28;20151;-85
2022/04/27 19:39:06;;;;;;;20.20;10.07;;;;;;;;;;4929229;28;20095;-83
2022/04/27 19:41:33;;;;;;;17.75;10.13;;;;;;;;;;4923445;28;20425;-84
2022/04/27 19:44:00;;;;;;;20.98;10.50;;;;;;;;;;4920612;28;20048;-82
2022/04/27 19:46:30;;;;;;;20.50;10.13;;;;;;;;;;4955264;28;20118;-84
2022/04/27 19:49:00;;;;;;;18.33;9.88;;;;;;;;;;4924435;28;20457;-82
2022/04/27 19:51:28;;;;;;;18.70;10.73;;;;;;;;;;4929947;28;20102;-83
2022/04/27 19:53:56;;;;;;;18.45;10.43;;;;;;;;;;4933436;28;20137;-82
2022/04/27 19:56:22;;;;;;;21.98;11.63;;;;;;;;;;4928919;28;20138;-84
2022/04/27 19:58:51;;;;;;;19.45;10.80;;;;;;;;;;4930574;28;20213;-81
2022/04/27 20:01:18;;;;;;;23.13;10.85;;;;;;;;;;4928184;28;20079;-82
2022/04/27 20:03:48;;;;;;;23.10;10.85;;;;;;;;;;4928565;28;20543;-83
2022/04/27 20:06:18;;;;;;;21.20;11.30;;;;;;;;;;4929105;28;20055;-84
2022/04/27 20:08:47;;;;;;;22.30;11.50;;;;;;;;;;4928549;28;20500;-83
2022/04/27 20:11:14;;;;;;;21.83;10.85;;;;;;;;;;4928065;28;20051;-83
2022/04/27 20:13:44;;;;;;;21.70;11.25;;;;;;;;;;4929249;28;20122;-83
2022/04/27 20:16:15;;;;;;;19.48;10.73;;;;;;;;;;4927057;28;20046;-83
2022/04/27 20:18:43;;;;;;;19.90;11.48;;;;;;;;;;4932485;28;20063;-82
2022/04/27 20:21:17;;;;;;;20.38;11.07;;;;;;;;;;4927897;28;20131;-82
2022/04/27 20:23:45;;;;;;;20.17;11.15;;;;;;;;;;4928180;28;20055;-81
2022/04/27 20:26:11;;;;;;;18.05;11.07;;;;;;;;;;4927362;28;20046;-81
2022/04/27 20:28:39;;;;;;;20.63;11.45;;;;;;;;;;4931091;28;20130;-81
2022/04/27 20:31:06;;;;;;;22.33;11.07;;;;;;;;;;4931513;28;20790;-81
2022/04/27 20:33:33;;;;;;;23.73;11.13;;;;;;;;;;4927912;28;20528;-83
2022/04/27 20:35:59;;;;;;;22.15;11.40;;;;;;;;;;4926632;28;20107;-83
2022/04/27 20:38:26;;;;;;;23.83;11.57;;;;;;;;;;4927288;28;20135;-82
2022/04/27 20:40:53;;;;;;;19.58;11.50;;;;;;;;;;4929262;28;20120;-83
2022/04/27 20:43:20;;;;;;;21.65;12.00;;;;;;;;;;4926190;28;20135;-83
2022/04/27 20:45:47;;;;;;;26.23;11.80;;;;;;;;;;4927896;28;20059;-82
2022/04/27 20:48:14;;;;;;;22.25;10.95;;;;;;;;;;4927623;28;20079;-83
2022/04/27 20:50:41;;;;;;;20.15;11.60;;;;;;;;;;4927190;28;20060;-82
2022/04/27 20:53:09;;;;;;;21.90;11.35;;;;;;;;;;4927844;28;20083;-81
2022/04/27 20:55:36;;;;;;;21.30;11.70;;;;;;;;;;4930541;28;20040;-82
2022/04/27 20:58:03;;;;;;;27.58;12.27;;;;;;;;;;4933324;28;20126;-84
2022/04/27 21:00:30;;;;;;;24.10;12.02;;;;;;;;;;4931057;28;20048;-83
2022/04/27 21:02:57;;;;;;;21.20;12.20;;;;;;;;;;4932346;28;20496;-83
2022/04/27 21:05:24;;;;;;;26.63;12.70;;;;;;;;;;4931805;28;21577;-81
2022/04/27 21:07:52;;;;;;;24.67;12.30;;;;;;;;;;4936106;28;20304;-86